< < Back
Terminal Aerodrome Forecast


Current Version              Previous Versions:   1  2  3  4  5  6  7  8  9  

Terminal Aerodrome Forecast

829
FTUS44 KBMX 282021 AAA
TAFMGM
TAF AMD
KMGM 282021Z 2820/2918 32006KT P6SM VCTS SCT050CB
      TEMPO 2820/2822 3SM TSRA BKN050CB
     FM290200 VRB02KT P6SM SCT250
     FM290900 00000KT 5SM BR FEW250=

Latest METAR

187
SAUS80 KWBC 290600 RRA
MTRMGM
METAR KMGM 290553Z AUTO 00000KT 7SM CLR 26/24 A2999 RMK AO2 SLP150
T02560239 10289 20256 403670244 50004


USA.gov is the U.S. government's official web portal to all federal, state and local government web resources and services.